Time;durP1;ratioP1;P1;durP2;ratioP2;P2;SDS_P1;SDS_P2;PMS_P1;PMS_P2;Temp;Humidity;BMP_temperature;BMP_pressure;BME280_temperature;BME280_humidity;BME280_pressure;Samples;Min_cycle;Max_cycle;Signal;HPM_P1;HPM_P2
2022/09/22 00:01:27;;;;;;;1.33;0.82;;;8.80;99.90;;;;;;5053067;28;20048;-74
2022/09/22 00:03:55;;;;;;;1.80;0.90;;;8.80;99.90;;;;;;5046295;28;20029;-73
2022/09/22 00:06:25;;;;;;;2.40;1.50;;;8.80;99.90;;;;;;5070730;28;20041;-73
2022/09/22 00:08:54;;;;;;;1.73;1.10;;;8.80;99.90;;;;;;5053878;28;20047;-74
2022/09/22 00:11:22;;;;;;;3.63;1.10;;;8.70;99.90;;;;;;5052028;28;20120;-74
2022/09/22 00:13:57;;;;;;;1.80;0.80;;;8.70;99.90;;;;;;5051755;28;20174;-73
2022/09/22 00:16:27;;;;;;;0.50;0.50;;;8.70;99.90;;;;;;5053777;28;20087;-74
2022/09/22 00:18:53;;;;;;;1.08;0.55;;;8.60;99.90;;;;;;5053858;28;20072;-74
2022/09/22 00:21:21;;;;;;;0.77;0.50;;;8.70;99.90;;;;;;5052855;28;20152;-74
2022/09/22 00:23:47;;;;;;;1.50;0.50;;;8.60;99.90;;;;;;5053726;28;20077;-74
2022/09/22 00:26:17;;;;;;;0.73;0.52;;;8.50;99.90;;;;;;5053958;28;20389;-73
2022/09/22 00:28:44;;;;;;;1.67;0.60;;;8.40;99.90;;;;;;5053643;28;20488;-74
2022/09/22 00:31:12;;;;;;;3.08;0.57;;;8.40;99.90;;;;;;5051663;28;20040;-74
2022/09/22 00:33:40;;;;;;;0.63;0.60;;;8.30;99.90;;;;;;5052726;28;20044;-74
2022/09/22 00:36:06;;;;;;;0.95;0.70;;;8.30;99.90;;;;;;5036742;28;20065;-74
2022/09/22 00:38:32;;;;;;;0.65;0.60;;;8.30;99.90;;;;;;5053457;28;20037;-74
2022/09/22 00:41:00;;;;;;;1.77;0.70;;;8.30;99.90;;;;;;5051811;28;20527;-75
2022/09/22 00:43:27;;;;;;;2.33;0.73;;;8.20;99.90;;;;;;5070304;28;20051;-74
2022/09/22 00:46:19;;;;;;;2.67;0.80;;;8.10;99.90;;;;;;5053288;28;20037;-74
2022/09/22 00:48:58;;;;;;;3.15;0.80;;;8.00;99.90;;;;;;5053319;28;20073;-74
2022/09/22 00:51:29;;;;;;;1.95;0.80;;;8.10;99.90;;;;;;5052013;28;20052;-74
2022/09/22 00:53:57;;;;;;;2.47;0.90;;;8.10;99.90;;;;;;5053288;28;20097;-74
2022/09/22 00:56:45;;;;;;;2.38;0.85;;;8.10;99.90;;;;;;5052137;28;20489;-73
2022/09/22 00:59:14;;;;;;;3.50;0.90;;;8.10;99.90;;;;;;5033981;28;20134;-74
2022/09/22 01:01:40;;;;;;;2.60;1.00;;;8.10;99.90;;;;;;5050690;28;20033;-74
2022/09/22 01:04:06;;;;;;;4.28;1.17;;;8.10;99.90;;;;;;5052955;28;20448;-73
2022/09/22 01:06:33;;;;;;;4.32;1.10;;;8.10;99.90;;;;;;5052879;28;20033;-73
2022/09/22 01:09:00;;;;;;;2.20;0.77;;;8.00;99.90;;;;;;5052912;28;20037;-74
2022/09/22 01:11:28;;;;;;;2.38;0.70;;;8.00;99.90;;;;;;5052053;28;20041;-73
2022/09/22 01:14:14;;;;;;;2.67;0.73;;;8.00;99.90;;;;;;5036014;28;20041;-74
2022/09/22 01:17:00;;;;;;;1.33;0.68;;;8.00;99.90;;;;;;5051990;28;20077;-74
2022/09/22 01:19:39;;;;;;;1.45;0.57;;;8.00;99.90;;;;;;5052361;28;20106;-74
2022/09/22 01:22:15;;;;;;;1.10;0.70;;;7.90;99.90;;;;;;5051827;28;20040;-74
2022/09/22 01:24:46;;;;;;;1.17;0.80;;;7.80;99.90;;;;;;5036047;28;20037;-74
2022/09/22 01:27:43;;;;;;;0.70;0.70;;;7.80;99.90;;;;;;5052095;28;20444;-74
2022/09/22 01:30:21;;;;;;;0.65;0.60;;;7.80;99.90;;;;;;5050748;28;20098;-74
2022/09/22 01:33:09;;;;;;;0.88;0.50;;;7.80;99.90;;;;;;5032467;28;20052;-73
2022/09/22 01:36:09;;;;;;;0.52;0.40;;;7.80;99.90;;;;;;5033180;28;20041;-73
2022/09/22 01:38:45;;;;;;;0.63;0.40;;;7.90;99.90;;;;;;5052291;28;20056;-74
2022/09/22 01:41:57;;;;;;;0.68;0.40;;;7.90;99.90;;;;;;5067787;28;20095;-74
2022/09/22 01:44:32;;;;;;;0.30;0.30;;;7.80;99.90;;;;;;5035678;28;20043;-74
2022/09/22 01:47:09;;;;;;;0.32;0.32;;;7.80;99.90;;;;;;5034057;28;20091;-74
2022/09/22 01:49:41;;;;;;;0.45;0.32;;;7.80;99.90;;;;;;5052278;28;20123;-74
2022/09/22 01:52:12;;;;;;;0.63;0.33;;;7.70;99.90;;;;;;5051105;28;20157;-74
2022/09/22 01:54:46;;;;;;;0.35;0.35;;;7.70;99.90;;;;;;5032181;28;20072;-73
2022/09/22 01:57:37;;;;;;;0.45;0.28;;;7.80;99.90;;;;;;5015918;28;20047;-74
2022/09/22 02:00:06;;;;;;;0.40;0.32;;;7.70;99.90;;;;;;5042737;28;20060;-74
2022/09/22 02:02:55;;;;;;;0.98;0.30;;;7.70;99.90;;;;;;5033186;28;20075;-74
2022/09/22 02:05:37;;;;;;;0.40;0.40;;;7.70;99.90;;;;;;5050434;28;20041;-75
2022/09/22 02:08:10;;;;;;;0.67;0.43;;;7.70;99.90;;;;;;5051965;28;20041;-74
2022/09/22 02:10:41;;;;;;;1.00;0.32;;;7.70;99.90;;;;;;5050876;28;20316;-74
2022/09/22 02:13:07;;;;;;;0.30;0.30;;;7.60;99.90;;;;;;5049209;28;20520;-75
2022/09/22 02:18:26;;;;;;;0.30;0.30;;;7.60;99.90;;;;;;5068425;28;20138;-74
2022/09/22 02:20:52;;;;;;;0.73;0.40;;;7.50;99.90;;;;;;5050724;28;20179;-74
2022/09/22 02:23:18;;;;;;;0.85;0.50;;;7.50;99.90;;;;;;5034462;28;20044;-74
2022/09/22 02:25:44;;;;;;;0.85;0.63;;;7.40;99.90;;;;;;5050941;28;20045;-74
2022/09/22 02:28:15;;;;;;;1.27;0.40;;;7.40;99.90;;;;;;5051781;28;20102;-74
2022/09/22 02:30:42;;;;;;;1.00;0.70;;;7.30;99.90;;;;;;5065721;28;20144;-74
2022/09/22 02:33:10;;;;;;;1.70;0.52;;;7.30;99.90;;;;;;5067570;28;20045;-74
2022/09/22 02:35:38;;;;;;;1.58;0.70;;;7.20;99.90;;;;;;5034995;28;20048;-73
2022/09/22 02:38:12;;;;;;;1.65;0.75;;;7.10;99.90;;;;;;5051635;28;20073;-74
2022/09/22 02:40:46;;;;;;;3.88;0.80;;;7.10;99.90;;;;;;5033310;28;20045;-73
2022/09/22 02:43:21;;;;;;;0.73;0.60;;;7.10;99.90;;;;;;5035258;28;20388;-72
2022/09/22 02:46:06;;;;;;;1.38;0.70;;;7.10;99.90;;;;;;5051621;28;20505;-72
2022/09/22 02:48:37;;;;;;;1.83;0.90;;;7.00;99.90;;;;;;5051785;28;20047;-72
2022/09/22 02:51:04;;;;;;;1.83;0.80;;;7.00;99.90;;;;;;5050071;28;20040;-73
2022/09/22 02:53:32;;;;;;;5.68;1.55;;;6.90;99.90;;;;;;5051439;28;20144;-72
2022/09/22 02:55:57;;;;;;;1.33;0.70;;;7.00;99.90;;;;;;5051490;28;20063;-73
2022/09/22 02:58:23;;;;;;;1.30;0.80;;;6.90;99.90;;;;;;5049886;28;20489;-73
2022/09/22 03:00:49;;;;;;;3.65;1.00;;;6.90;99.90;;;;;;5033747;28;20034;-73
2022/09/22 03:03:14;;;;;;;3.08;1.00;;;6.90;99.90;;;;;;5050849;28;20398;-73
2022/09/22 03:05:40;;;;;;;3.58;0.90;;;6.90;99.90;;;;;;5051584;28;20452;-73
2022/09/22 03:08:06;;;;;;;2.08;1.00;;;6.90;99.90;;;;;;5034667;28;20041;-73
2022/09/22 03:10:32;;;;;;;1.52;1.02;;;6.90;99.90;;;;;;5034076;28;20041;-73
2022/09/22 03:12:57;;;;;;;1.85;0.90;;;6.80;99.90;;;;;;5051510;28;20536;-72
2022/09/22 03:15:23;;;;;;;0.55;0.55;;;6.80;99.90;;;;;;5051200;28;20053;-72
2022/09/22 03:17:49;;;;;;;2.22;0.75;;;6.90;99.90;;;;;;5068192;28;20362;-72
2022/09/22 03:20:16;;;;;;;1.95;0.60;;;6.90;99.90;;;;;;5051497;28;20041;-72
2022/09/22 03:22:42;;;;;;;0.50;0.50;;;6.90;99.90;;;;;;5052259;28;20400;-72
2022/09/22 03:25:10;;;;;;;0.28;0.28;;;6.90;99.90;;;;;;5055122;28;20041;-72
2022/09/22 03:27:37;;;;;;;1.08;0.40;;;6.90;99.90;;;;;;5054753;28;20037;-72
2022/09/22 03:30:05;;;;;;;2.42;1.75;;;7.00;99.90;;;;;;5053549;28;20041;-72
2022/09/22 03:32:31;;;;;;;0.50;0.30;;;7.00;99.90;;;;;;5037598;28;20052;-72
2022/09/22 03:34:56;;;;;;;0.88;0.50;;;7.00;99.90;;;;;;5054640;28;20045;-72
2022/09/22 03:37:22;;;;;;;0.57;0.40;;;7.00;99.90;;;;;;5054220;28;20436;-72
2022/09/22 03:39:48;;;;;;;1.15;0.50;;;6.90;99.90;;;;;;5054672;28;20033;-73
2022/09/22 03:42:14;;;;;;;0.68;0.40;;;6.90;99.90;;;;;;5053784;28;20473;-73
2022/09/22 03:44:39;;;;;;;0.50;0.30;;;6.90;99.90;;;;;;5054683;28;20041;-73
2022/09/22 03:47:05;;;;;;;0.80;0.50;;;6.90;99.90;;;;;;5053671;28;20044;-72
2022/09/22 03:49:31;;;;;;;0.70;0.40;;;6.90;99.90;;;;;;5052530;28;20044;-72
2022/09/22 03:51:56;;;;;;;1.55;0.55;;;6.80;99.90;;;;;;5053502;28;20079;-72
2022/09/22 03:54:22;;;;;;;0.68;0.50;;;6.80;99.90;;;;;;5054286;28;20049;-73
2022/09/22 03:56:48;;;;;;;3.55;0.80;;;6.70;99.90;;;;;;5070932;28;20094;-73
2022/09/22 03:59:14;;;;;;;0.65;0.60;;;6.70;99.90;;;;;;5053159;28;20041;-72
2022/09/22 04:01:40;;;;;;;3.55;0.60;;;6.70;99.90;;;;;;5036880;28;20131;-72
2022/09/22 04:04:06;;;;;;;0.43;0.30;;;6.60;99.90;;;;;;5054125;28;20033;-72
2022/09/22 04:06:31;;;;;;;0.88;0.40;;;6.60;99.90;;;;;;5053342;28;20036;-72
2022/09/22 04:08:57;;;;;;;0.93;0.35;;;6.60;99.90;;;;;;5036875;28;20072;-72
2022/09/22 04:11:23;;;;;;;1.00;0.63;;;6.70;99.90;;;;;;5053182;28;20044;-72
2022/09/22 04:13:49;;;;;;;2.63;0.75;;;6.70;99.90;;;;;;5037357;28;20512;-72
2022/09/22 04:16:16;;;;;;;1.63;0.82;;;6.70;99.90;;;;;;5053213;28;20049;-72
2022/09/22 04:18:41;;;;;;;0.82;0.70;;;6.60;99.90;;;;;;5054082;28;20040;-72
2022/09/22 04:21:08;;;;;;;2.45;0.80;;;6.60;99.90;;;;;;5052775;28;20045;-73
2022/09/22 04:23:34;;;;;;;1.38;0.90;;;6.60;99.90;;;;;;5053118;28;20378;-73
2022/09/22 04:26:00;;;;;;;1.80;0.90;;;6.70;99.90;;;;;;5053763;28;20037;-72
2022/09/22 04:28:27;;;;;;;4.15;1.00;;;6.70;99.90;;;;;;5048195;28;20037;-72
2022/09/22 04:30:53;;;;;;;2.90;0.93;;;6.70;99.90;;;;;;5049422;28;20041;-72
2022/09/22 04:33:18;;;;;;;1.95;0.90;;;6.70;99.90;;;;;;5053526;28;20041;-72
2022/09/22 04:35:44;;;;;;;1.65;1.00;;;6.70;99.90;;;;;;5053403;28;20094;-72
2022/09/22 04:38:10;;;;;;;2.03;0.90;;;6.70;99.90;;;;;;5053487;28;20105;-72
2022/09/22 04:40:36;;;;;;;3.88;1.08;;;6.70;99.90;;;;;;5068730;28;20108;-72
2022/09/22 04:43:02;;;;;;;2.60;1.02;;;6.70;99.90;;;;;;5036741;28;20037;-72
2022/09/22 04:45:28;;;;;;;3.45;1.15;;;6.80;99.90;;;;;;5052516;28;20497;-72
2022/09/22 04:47:53;;;;;;;2.60;1.20;;;6.80;99.90;;;;;;5053526;28;20037;-72
2022/09/22 04:50:21;;;;;;;2.28;1.20;;;6.80;99.90;;;;;;5052529;28;20047;-72
2022/09/22 04:52:49;;;;;;;1.92;1.20;;;6.80;99.90;;;;;;5053135;28;20076;-72
2022/09/22 04:55:15;;;;;;;2.13;1.20;;;6.80;99.90;;;;;;5036508;28;20516;-72
2022/09/22 04:57:46;;;;;;;2.67;1.40;;;6.80;99.90;;;;;;5051586;28;20068;-72
2022/09/22 05:00:11;;;;;;;1.20;0.80;;;6.70;99.90;;;;;;5033163;28;20038;-72
2022/09/22 05:02:37;;;;;;;0.95;0.80;;;6.70;99.90;;;;;;5034933;28;20041;-72
2022/09/22 05:05:04;;;;;;;1.55;0.80;;;6.70;99.90;;;;;;5052966;28;20456;-72
2022/09/22 05:07:30;;;;;;;2.65;0.82;;;6.70;99.90;;;;;;5035725;28;20094;-72
2022/09/22 05:09:56;;;;;;;1.95;0.70;;;6.70;99.90;;;;;;5052881;28;20037;-72
2022/09/22 05:12:21;;;;;;;1.25;0.73;;;6.70;99.90;;;;;;5051849;28;20043;-72
2022/09/22 05:14:47;;;;;;;2.67;0.70;;;6.60;99.90;;;;;;5052535;28;20044;-71
2022/09/22 05:17:13;;;;;;;1.85;0.77;;;6.50;99.90;;;;;;5068803;28;20098;-71
2022/09/22 05:19:39;;;;;;;1.45;0.80;;;6.50;99.90;;;;;;5069583;28;20056;-71
2022/09/22 05:22:05;;;;;;;1.42;0.60;;;6.50;99.90;;;;;;5068390;28;20477;-71
2022/09/22 05:24:31;;;;;;;1.92;0.77;;;6.50;99.90;;;;;;5069488;28;20041;-71
2022/09/22 05:26:57;;;;;;;2.55;1.00;;;6.50;99.90;;;;;;5068601;28;20440;-70
2022/09/22 05:29:23;;;;;;;3.28;1.20;;;6.40;99.90;;;;;;5035159;28;20405;-70
2022/09/22 05:31:49;;;;;;;1.15;1.02;;;6.30;99.90;;;;;;5033210;28;20558;-71
2022/09/22 05:34:15;;;;;;;2.10;1.27;;;6.40;99.90;;;;;;5051206;28;20036;-71
2022/09/22 05:36:40;;;;;;;3.88;1.50;;;6.30;99.90;;;;;;5069159;28;20500;-70
2022/09/22 05:39:06;;;;;;;2.60;1.30;;;6.20;99.90;;;;;;5052346;28;20037;-70
2022/09/22 05:41:32;;;;;;;3.13;1.35;;;6.20;99.90;;;;;;5049468;28;20040;-70
2022/09/22 05:43:57;;;;;;;2.17;1.10;;;6.20;99.90;;;;;;5034155;28;20041;-71
2022/09/22 05:46:23;;;;;;;4.75;1.10;;;6.20;99.90;;;;;;5049830;28;20044;-71
2022/09/22 05:48:48;;;;;;;1.55;0.80;;;6.20;99.90;;;;;;5023568;28;20045;-71
2022/09/22 05:51:14;;;;;;;1.95;0.70;;;6.30;99.90;;;;;;5051318;28;20041;-70
2022/09/22 05:53:39;;;;;;;1.20;0.70;;;6.30;99.90;;;;;;5049678;28;20045;-70
2022/09/22 05:56:05;;;;;;;1.23;0.63;;;6.40;99.90;;;;;;5023646;28;20051;-71
2022/09/22 05:58:31;;;;;;;1.08;0.90;;;6.40;99.90;;;;;;5035706;28;20489;-70
2022/09/22 06:00:56;;;;;;;2.40;1.00;;;6.40;99.90;;;;;;5051068;28;20080;-70
2022/09/22 06:03:22;;;;;;;1.52;1.00;;;6.30;99.90;;;;;;5051943;28;20041;-70
2022/09/22 06:05:48;;;;;;;3.70;1.00;;;6.30;99.90;;;;;;5034391;28;20052;-71
2022/09/22 06:08:14;;;;;;;1.55;0.80;;;6.30;99.90;;;;;;5052662;28;20519;-70
2022/09/22 06:10:39;;;;;;;1.50;0.75;;;6.40;99.90;;;;;;5052117;28;20511;-70
2022/09/22 06:13:10;;;;;;;2.20;1.00;;;6.40;99.90;;;;;;5031598;28;20060;-70
2022/09/22 06:15:36;;;;;;;3.17;1.23;;;6.40;99.90;;;;;;5045353;28;20643;-70
2022/09/22 06:18:05;;;;;;;2.58;1.40;;;6.40;99.90;;;;;;5033667;28;20398;-70
2022/09/22 06:20:32;;;;;;;4.28;1.83;;;6.40;99.90;;;;;;5051292;28;20041;-70
2022/09/22 06:22:58;;;;;;;6.35;2.05;;;6.40;99.90;;;;;;5035085;28;20037;-70
2022/09/22 06:25:26;;;;;;;6.35;2.40;;;6.40;99.90;;;;;;5051441;28;20036;-69
2022/09/22 06:28:01;;;;;;;6.35;2.88;;;6.40;99.90;;;;;;5049499;28;20040;-70
2022/09/22 06:30:27;;;;;;;7.07;3.38;;;6.50;99.90;;;;;;5035085;28;20127;-70
2022/09/22 06:32:54;;;;;;;6.38;2.83;;;6.50;99.90;;;;;;5050563;28;20128;-70
2022/09/22 06:35:20;;;;;;;6.65;3.45;;;6.50;99.90;;;;;;5050775;28;20515;-70
2022/09/22 06:37:46;;;;;;;6.65;3.03;;;6.60;99.90;;;;;;5051690;28;20120;-70
2022/09/22 06:40:12;;;;;;;5.97;3.80;;;6.70;99.90;;;;;;5050759;28;20045;-70
2022/09/22 06:42:37;;;;;;;9.02;4.22;;;6.70;99.90;;;;;;5051609;28;20401;-70
2022/09/22 06:45:03;;;;;;;10.13;5.57;;;6.80;99.90;;;;;;5050793;28;20041;-70
2022/09/22 06:47:31;;;;;;;9.93;5.25;;;6.80;99.90;;;;;;5050677;28;20436;-70
2022/09/22 06:49:56;;;;;;;8.30;5.95;;;6.90;99.90;;;;;;5051483;28;20060;-70
2022/09/22 06:52:22;;;;;;;10.70;6.80;;;6.90;99.90;;;;;;5050959;28;20037;-70
2022/09/22 06:54:47;;;;;;;9.63;6.70;;;7.00;99.90;;;;;;5035024;28;20083;-70
2022/09/22 06:57:13;;;;;;;11.10;8.25;;;7.00;99.90;;;;;;5052043;28;20037;-70
2022/09/22 06:59:39;;;;;;;10.82;7.43;;;7.10;99.90;;;;;;5053238;28;20538;-70
2022/09/22 07:02:06;;;;;;;16.58;9.00;;;7.20;99.90;;;;;;5055270;28;20076;-70
2022/09/22 07:04:33;;;;;;;13.38;8.18;;;7.30;99.90;;;;;;5054455;28;20393;-70
2022/09/22 07:06:59;;;;;;;11.75;7.57;;;7.30;99.90;;;;;;5053571;28;20040;-70
2022/09/22 07:09:25;;;;;;;10.45;7.93;;;7.40;99.90;;;;;;5025812;28;20071;-70
2022/09/22 07:11:51;;;;;;;8.30;5.43;;;7.60;99.90;;;;;;5051562;28;20065;-75
2022/09/22 07:14:19;;;;;;;10.45;7.07;;;7.80;99.90;;;;;;5054975;28;20049;-74
2022/09/22 07:16:45;;;;;;;9.85;7.40;;;8.00;99.90;;;;;;5036568;28;20033;-70
2022/09/22 07:19:10;;;;;;;11.85;8.25;;;8.30;99.90;;;;;;5033886;28;20033;-70
2022/09/22 07:21:37;;;;;;;11.32;8.73;;;8.70;99.90;;;;;;5041491;28;20052;-70
2022/09/22 07:24:04;;;;;;;13.02;8.88;;;9.00;99.90;;;;;;5027054;28;20045;-70
2022/09/22 07:26:32;;;;;;;12.60;8.60;;;9.20;99.90;;;;;;5053708;28;20071;-70
2022/09/22 07:29:00;;;;;;;12.38;8.25;;;9.30;99.90;;;;;;5059218;28;20052;-70
2022/09/22 07:31:28;;;;;;;11.85;8.48;;;9.50;99.90;;;;;;5052212;28;20383;-70
2022/09/22 07:33:54;;;;;;;12.25;8.95;;;9.70;99.90;;;;;;5055114;28;20041;-70
2022/09/22 07:36:22;;;;;;;13.70;8.90;;;9.90;99.90;;;;;;5036185;28;20110;-70
2022/09/22 07:38:50;;;;;;;11.73;8.57;;;10.00;99.90;;;;;;5052576;28;20036;-70
2022/09/22 07:41:22;;;;;;;12.38;9.30;;;10.10;99.90;;;;;;5052057;28;20189;-70
2022/09/22 07:43:54;;;;;;;12.15;8.05;;;10.20;99.90;;;;;;5053049;28;20037;-70
2022/09/22 07:46:20;;;;;;;13.40;8.63;;;10.40;99.90;;;;;;5052939;28;20045;-70
2022/09/22 07:48:46;;;;;;;11.35;8.63;;;10.50;99.90;;;;;;5050701;28;20123;-70
2022/09/22 07:51:21;;;;;;;11.93;8.30;;;10.70;99.90;;;;;;5051011;28;20086;-70
2022/09/22 07:54:01;;;;;;;11.18;8.25;;;10.80;99.90;;;;;;5050213;28;20041;-70
2022/09/22 07:56:27;;;;;;;12.82;9.27;;;10.90;99.90;;;;;;5034410;28;20044;-70
2022/09/22 07:58:54;;;;;;;12.13;7.72;;;11.00;99.90;;;;;;5050235;28;20534;-70
2022/09/22 08:01:33;;;;;;;10.85;7.65;;;11.10;99.90;;;;;;5036154;28;20047;-70
2022/09/22 08:03:59;;;;;;;11.68;7.82;;;11.30;99.90;;;;;;5036619;28;20045;-70
2022/09/22 08:06:24;;;;;;;12.18;7.82;;;11.50;99.90;;;;;;5052382;28;20045;-71
2022/09/22 08:08:55;;;;;;;11.57;8.20;;;11.50;99.90;;;;;;5069506;28;20055;-71
2022/09/22 08:11:27;;;;;;;10.25;8.00;;;11.60;99.90;;;;;;5052415;28;20040;-71
2022/09/22 08:14:01;;;;;;;13.23;8.30;;;11.70;99.90;;;;;;5053368;28;20033;-70
2022/09/22 08:16:31;;;;;;;11.05;7.97;;;11.70;99.90;;;;;;5068634;28;20295;-71
2022/09/22 08:18:59;;;;;;;10.13;7.70;;;11.70;99.90;;;;;;5051372;28;20091;-71
2022/09/22 08:21:26;;;;;;;11.40;8.00;;;11.80;99.90;;;;;;5043002;28;20047;-71
2022/09/22 08:23:53;;;;;;;12.63;7.78;;;11.90;99.90;;;;;;5051349;28;20367;-71
2022/09/22 08:26:21;;;;;;;11.18;7.60;;;12.00;99.90;;;;;;5053387;28;20390;-71
2022/09/22 08:28:51;;;;;;;12.50;7.72;;;12.00;99.90;;;;;;5048927;28;20127;-71
2022/09/22 08:31:20;;;;;;;10.90;7.00;;;12.20;99.90;;;;;;5036321;28;20052;-71
2022/09/22 08:33:48;;;;;;;10.45;6.47;;;12.30;99.90;;;;;;5046076;28;20049;-71
2022/09/22 08:36:14;;;;;;;9.93;5.93;;;12.40;99.90;;;;;;5033500;28;20048;-71
2022/09/22 08:38:40;;;;;;;10.95;6.57;;;12.50;99.90;;;;;;5048388;28;20037;-71
2022/09/22 08:41:17;;;;;;;9.95;5.85;;;12.60;99.90;;;;;;5026701;28;20489;-71
2022/09/22 08:43:54;;;;;;;18.40;5.97;;;12.70;99.90;;;;;;5051260;28;21533;-77
2022/09/22 08:46:33;;;;;;;11.15;6.30;;;12.80;99.90;;;;;;5029349;28;20040;-73
2022/09/22 08:51:57;;;;;;;;;;;13.00;99.90;;;;;;5052521;28;20045;-73
2022/09/22 08:54:30;;;;;;;9.05;4.60;;;13.20;99.90;;;;;;5052446;28;19917;-74
2022/09/22 08:57:18;;;;;;;10.00;5.13;;;13.40;99.90;;;;;;5052415;28;20029;-73
2022/09/22 09:00:11;;;;;;;11.25;4.80;;;13.50;99.90;;;;;;5071509;28;20040;-73
2022/09/22 09:02:46;;;;;;;8.63;4.22;;;13.70;99.90;;;;;;5048161;28;20029;-73
2022/09/22 09:05:38;;;;;;;8.63;4.40;;;13.80;99.90;;;;;;5053210;28;20152;-74
2022/09/22 09:08:30;;;;;;;8.35;4.20;;;13.90;99.90;;;;;;5035312;28;20398;-74
2022/09/22 09:11:10;;;;;;;7.97;4.00;;;14.00;99.90;;;;;;5052211;28;20127;-74
2022/09/22 09:14:14;;;;;;;9.40;4.50;;;14.10;99.90;;;;;;5049230;28;20037;-73
2022/09/22 09:16:43;;;;;;;7.70;3.95;;;14.20;99.90;;;;;;5016244;28;20065;-79
2022/09/22 09:19:33;;;;;;;7.78;4.07;;;14.20;99.90;;;;;;5065587;28;20127;-72
2022/09/22 09:22:04;;;;;;;8.38;3.42;;;14.20;99.90;;;;;;5033872;28;20067;-73
2022/09/22 09:24:31;;;;;;;7.60;3.78;;;14.40;99.90;;;;;;5042752;28;20094;-72
2022/09/22 09:27:08;;;;;;;8.75;3.50;;;14.40;99.90;;;;;;5049563;28;20045;-72
2022/09/22 09:29:43;;;;;;;8.75;4.00;;;14.50;99.90;;;;;;5035979;28;20052;-72
2022/09/22 09:32:20;;;;;;;9.27;3.95;;;14.60;99.90;;;;;;5067081;28;20076;-72
2022/09/22 09:34:48;;;;;;;6.55;3.95;;;14.80;99.90;;;;;;5051948;28;20627;-72
2022/09/22 09:37:15;;;;;;;7.35;3.80;;;14.90;99.90;;;;;;5049973;28;20040;-72
2022/09/22 09:39:43;;;;;;;7.32;3.20;;;14.90;99.90;;;;;;5051601;28;20033;-72
2022/09/22 09:42:35;;;;;;;6.22;3.00;;;14.90;99.90;;;;;;5023497;28;20397;-72
2022/09/22 09:45:02;;;;;;;7.38;3.13;;;15.10;99.90;;;;;;5036410;28;20053;-72
2022/09/22 09:47:48;;;;;;;6.63;3.00;;;15.20;99.90;;;;;;5034179;28;20040;-72
2022/09/22 09:50:15;;;;;;;6.85;3.10;;;15.30;99.90;;;;;;5062308;28;20049;-72
2022/09/22 09:52:41;;;;;;;8.63;3.30;;;15.30;99.90;;;;;;5048183;28;20052;-72
2022/09/22 09:55:24;;;;;;;7.85;3.03;;;15.30;99.90;;;;;;5041903;28;20051;-72
2022/09/22 09:58:09;;;;;;;9.20;3.70;;;15.40;99.90;;;;;;5042935;28;20115;-72
2022/09/22 10:00:55;;;;;;;7.22;3.25;;;15.50;99.90;;;;;;5028390;28;20044;-73
2022/09/22 10:03:33;;;;;;;7.50;2.85;;;15.60;99.90;;;;;;5024203;28;20029;-72
2022/09/22 10:06:03;;;;;;;6.63;2.60;;;15.70;99.90;;;;;;5038327;28;20391;-73
2022/09/22 10:08:42;;;;;;;5.93;2.78;;;15.80;99.90;;;;;;5036387;28;20083;-73
2022/09/22 10:11:11;;;;;;;5.18;2.33;;;15.80;99.90;;;;;;5045151;28;20070;-73
2022/09/22 10:13:38;;;;;;;7.20;2.72;;;15.80;99.90;;;;;;5046666;28;20068;-73
2022/09/22 10:16:19;;;;;;;7.45;2.47;;;15.90;99.90;;;;;;5046917;28;20053;-73
2022/09/22 10:18:45;;;;;;;6.57;2.58;;;16.00;99.90;;;;;;5046340;28;20477;-73
2022/09/22 10:21:22;;;;;;;5.75;2.50;;;16.20;99.90;;;;;;5066789;28;20459;-73
2022/09/22 10:23:48;;;;;;;6.30;2.35;;;16.10;99.90;;;;;;5050251;28;20069;-73
2022/09/22 10:26:25;;;;;;;9.32;2.63;;;16.20;99.90;;;;;;5049411;28;20041;-73
2022/09/22 10:29:08;;;;;;;7.32;2.70;;;16.20;99.90;;;;;;5048828;28;20075;-73
2022/09/22 10:31:36;;;;;;;5.68;2.60;;;16.40;99.90;;;;;;5042056;28;20517;-73
2022/09/22 10:34:02;;;;;;;7.40;2.88;;;16.30;99.90;;;;;;5054721;28;20512;-73
2022/09/22 10:36:29;;;;;;;7.80;2.40;;;16.20;99.90;;;;;;5054393;28;20041;-73
2022/09/22 10:38:55;;;;;;;7.40;2.50;;;16.20;99.90;;;;;;5038819;28;20029;-72
2022/09/22 10:41:27;;;;;;;6.93;3.00;;;16.20;99.90;;;;;;5050674;28;20036;-73
2022/09/22 10:44:02;;;;;;;7.90;2.88;;;16.30;99.90;;;;;;5054909;28;20051;-80
2022/09/22 10:46:46;;;;;;;7.15;2.90;;;16.30;99.90;;;;;;5038473;28;20437;-80
2022/09/22 10:49:33;;;;;;;11.90;3.35;;;16.40;99.90;;;;;;5038357;28;20041;-80
2022/09/22 10:52:26;;;;;;;8.48;3.40;;;16.40;99.90;;;;;;5038322;28;20049;-80
2022/09/22 10:55:15;;;;;;;9.10;3.72;;;16.30;99.90;;;;;;5055340;28;20084;-80
2022/09/22 10:57:51;;;;;;;8.02;4.20;;;16.10;99.90;;;;;;5049614;28;20037;-79
2022/09/22 11:00:19;;;;;;;11.63;4.30;;;16.20;99.90;;;;;;5033408;28;20203;-79
2022/09/22 11:03:10;;;;;;;8.75;4.25;;;16.10;99.90;;;;;;5054466;28;20072;-79
2022/09/22 11:12:15;;;;;;;6.32;3.70;;;15.90;99.90;;;;;;5054666;28;20045;-74
2022/09/22 11:14:59;;;;;;;8.27;4.30;;;16.00;99.90;;;;;;5037521;28;20075;-74
2022/09/22 11:17:28;;;;;;;8.50;3.88;;;15.90;99.90;;;;;;5034930;28;20049;-74
2022/09/22 11:20:08;;;;;;;11.07;4.82;;;15.90;99.90;;;;;;5071256;28;20048;-74
2022/09/22 11:22:51;;;;;;;8.15;4.63;;;15.90;99.90;;;;;;5053683;28;20552;-74
2022/09/22 11:25:43;;;;;;;9.82;3.97;;;16.00;99.90;;;;;;5054565;28;20049;-74
2022/09/22 11:28:35;;;;;;;9.18;3.92;;;16.10;99.90;;;;;;5028384;28;20440;-74
2022/09/22 11:31:00;;;;;;;8.97;3.77;;;16.10;99.90;;;;;;5052199;28;20514;-74
2022/09/22 11:33:56;;;;;;;5.70;3.20;;;16.00;99.90;;;;;;5054038;28;20047;-74
2022/09/22 11:36:39;;;;;;;6.28;3.30;;;15.90;99.90;;;;;;5052203;28;20455;-75
2022/09/22 11:39:24;;;;;;;8.73;3.40;;;15.90;99.90;;;;;;5041082;28;20049;-74
2022/09/22 11:42:00;;;;;;;7.15;3.80;;;15.80;99.90;;;;;;5025282;28;20037;-74
2022/09/22 11:44:42;;;;;;;7.47;4.32;;;15.80;99.90;;;;;;5051776;28;20035;-74
2022/09/22 11:47:17;;;;;;;9.18;4.55;;;15.80;99.90;;;;;;5036817;28;20037;-74
2022/09/22 11:50:16;;;;;;;9.35;3.95;;;15.90;99.90;;;;;;5052186;28;20041;-75
2022/09/22 11:52:45;;;;;;;7.30;3.92;;;16.00;99.90;;;;;;5046426;28;20041;-74
2022/09/22 11:55:46;;;;;;;8.18;4.60;;;16.10;99.90;;;;;;5069646;28;20405;-74
2022/09/22 11:58:25;;;;;;;9.15;4.45;;;16.00;99.90;;;;;;5049613;28;20038;-74
2022/09/22 12:00:55;;;;;;;7.95;3.97;;;16.00;99.90;;;;;;5036295;28;20040;-74
2022/09/22 12:03:38;;;;;;;8.70;3.90;;;15.90;99.90;;;;;;5048299;28;20096;-74
2022/09/22 12:06:09;;;;;;;10.70;3.83;;;15.90;99.90;;;;;;5046497;28;20037;-74
2022/09/22 12:08:41;;;;;;;8.23;4.10;;;16.00;99.90;;;;;;5045033;28;20034;-74
2022/09/22 12:11:12;;;;;;;7.90;4.22;;;16.00;99.90;;;;;;5048412;28;20501;-74
2022/09/22 12:13:41;;;;;;;8.13;3.88;;;16.10;99.90;;;;;;5049307;28;20040;-74
2022/09/22 12:16:14;;;;;;;10.60;4.38;;;16.20;99.90;;;;;;5036573;28;20045;-74
2022/09/22 12:19:04;;;;;;;10.75;4.60;;;16.30;99.90;;;;;;5049283;28;20060;-76
2022/09/22 12:21:48;;;;;;;9.75;4.32;;;16.30;99.90;;;;;;5036876;28;20041;-76
2022/09/22 12:24:14;;;;;;;8.68;4.10;;;16.40;99.90;;;;;;5047112;28;20374;-77
2022/09/22 12:26:43;;;;;;;9.77;4.30;;;16.60;99.90;;;;;;5047890;28;20171;-76
2022/09/22 12:29:17;;;;;;;8.18;3.90;;;16.50;99.90;;;;;;5042327;28;20444;-76
2022/09/22 12:31:49;;;;;;;10.20;4.57;;;16.50;99.90;;;;;;5052866;28;20049;-76
2022/09/22 12:34:24;;;;;;;10.20;4.60;;;16.40;99.90;;;;;;5052921;28;20436;-76
2022/09/22 12:36:58;;;;;;;7.82;4.40;;;16.20;99.90;;;;;;5034134;28;20045;-76
2022/09/22 12:39:29;;;;;;;7.95;4.10;;;16.10;99.90;;;;;;5070544;28;20040;-75
2022/09/22 12:41:58;;;;;;;9.40;4.60;;;16.10;99.90;;;;;;5036975;28;20072;-75
2022/09/22 12:44:46;;;;;;;8.35;4.38;;;16.10;99.90;;;;;;5047196;28;20049;-75
2022/09/22 12:47:18;;;;;;;10.15;4.07;;;16.20;99.90;;;;;;5030998;28;20132;-75
2022/09/22 12:49:52;;;;;;;8.38;4.50;;;16.30;99.90;;;;;;5053364;28;20040;-75
2022/09/22 12:52:39;;;;;;;8.77;4.50;;;16.50;99.90;;;;;;5053300;28;20520;-75
2022/09/22 12:55:37;;;;;;;8.57;5.20;;;16.60;99.90;;;;;;5052021;28;20045;-75
2022/09/22 12:58:29;;;;;;;8.70;5.13;;;16.60;99.90;;;;;;5067537;28;20056;-75
2022/09/22 13:01:15;;;;;;;11.13;4.32;;;16.50;99.90;;;;;;5044604;28;20086;-75
2022/09/22 13:03:49;;;;;;;7.93;4.00;;;16.40;99.90;;;;;;5032554;28;20488;-75
2022/09/22 13:06:21;;;;;;;9.18;4.13;;;16.40;99.90;;;;;;5052979;28;20048;-75
2022/09/22 13:08:52;;;;;;;9.20;4.18;;;16.30;99.90;;;;;;5051389;28;20040;-75
2022/09/22 13:11:18;;;;;;;11.30;4.90;;;16.30;99.90;;;;;;5052955;28;20055;-75
2022/09/22 13:13:46;;;;;;;11.63;4.38;;;16.50;99.90;;;;;;5052624;28;20128;-74
2022/09/22 13:16:14;;;;;;;9.48;4.32;;;16.50;99.90;;;;;;5051689;28;20045;-75
2022/09/22 13:18:53;;;;;;;8.63;4.43;;;16.40;99.90;;;;;;5049199;28;20087;-75
2022/09/22 13:21:24;;;;;;;9.65;4.30;;;16.50;99.90;;;;;;5052386;28;20048;-75
2022/09/22 13:23:50;;;;;;;9.00;4.60;;;16.50;99.90;;;;;;5035227;28;20047;-75
2022/09/22 13:26:20;;;;;;;7.82;4.60;;;16.50;99.90;;;;;;5068053;28;20044;-75